TimeCDT,TemperatureF,Dew PointF,Humidity,Sea Level PressureIn,VisibilityMPH,Wind Direction,Wind SpeedMPH,Gust SpeedMPH,PrecipitationIn,Events,Conditions,WindDirDegrees,DateUTC
12:17 AM,66.6,53.6,63,29.93,10.0,WSW,4.6,-,N/A,,Clear,240,2013-06-17 05:17:00
12:37 AM,66.2,53.1,63,29.94,10.0,SW,6.9,-,N/A,,Clear,220,2013-06-17 05:37:00
12:57 AM,65.7,53.1,64,29.93,10.0,SW,5.8,-,N/A,,Clear,230,2013-06-17 05:57:00
1:17 AM,65.3,53.6,66,29.92,10.0,WSW,5.8,-,N/A,,Clear,240,2013-06-17 06:17:00
1:37 AM,65.7,55.4,69,29.92,10.0,West,6.9,-,N/A,,Clear,260,2013-06-17 06:37:00
1:57 AM,66.2,55.6,69,29.92,10.0,WSW,6.9,-,N/A,,Clear,240,2013-06-17 06:57:00
2:17 AM,64.6,55.9,74,29.93,10.0,SW,6.9,-,N/A,,Clear,230,2013-06-17 07:17:00
2:37 AM,63.5,56.3,77,29.93,10.0,SW,9.2,-,N/A,,Clear,230,2013-06-17 07:37:00
2:57 AM,63.7,56.3,77,29.93,10.0,WSW,9.2,-,N/A,,Clear,240,2013-06-17 07:57:00
3:17 AM,65.7,55.4,69,29.92,10.0,WSW,9.2,-,N/A,,Clear,250,2013-06-17 08:17:00
3:37 AM,65.7,54.9,68,29.92,10.0,WSW,11.5,-,N/A,,Clear,250,2013-06-17 08:37:00
3:57 AM,65.7,54.1,66,29.92,10.0,West,9.2,-,N/A,,Clear,260,2013-06-17 08:57:00
4:17 AM,64.9,54.0,68,29.92,10.0,West,10.4,-,N/A,,Clear,260,2013-06-17 09:17:00
4:37 AM,64.4,53.6,68,29.91,10.0,West,9.2,-,N/A,,Clear,260,2013-06-17 09:37:00
4:58 AM,63.5,53.6,70,29.92,10.0,West,9.2,-,N/A,,Clear,260,2013-06-17 09:58:00
5:17 AM,63.7,53.6,70,29.91,10.0,WNW,8.1,-,N/A,,Clear,290,2013-06-17 10:17:00
5:37 AM,63.0,53.6,71,29.91,10.0,WNW,9.2,-,N/A,,Clear,290,2013-06-17 10:37:00
5:57 AM,63.5,54.1,72,29.92,10.0,West,9.2,-,N/A,,Clear,270,2013-06-17 10:57:00
6:17 AM,63.7,54.3,72,29.92,10.0,West,10.4,-,N/A,,Clear,270,2013-06-17 11:17:00
6:38 AM,64.8,55.2,71,29.92,10.0,WNW,8.1,-,N/A,,Clear,290,2013-06-17 11:38:00
6:58 AM,65.5,55.6,70,29.93,10.0,WNW,8.1,-,N/A,,Clear,300,2013-06-17 11:58:00
7:17 AM,66.0,55.9,70,29.94,10.0,WNW,6.9,-,N/A,,Clear,300,2013-06-17 12:17:00
7:38 AM,67.5,57.2,70,29.94,10.0,NW,6.9,-,N/A,,Clear,310,2013-06-17 12:38:00
7:57 AM,68.4,57.0,67,29.95,10.0,NW,6.9,-,N/A,,Clear,320,2013-06-17 12:57:00
8:18 AM,68.9,57.2,66,29.96,10.0,NW,6.9,-,N/A,,Clear,320,2013-06-17 13:18:00
8:38 AM,70.2,57.6,64,29.96,10.0,NW,6.9,-,N/A,,Clear,310,2013-06-17 13:38:00
8:58 AM,71.2,58.1,63,29.96,10.0,WNW,6.9,-,N/A,,Clear,290,2013-06-17 13:58:00
9:18 AM,72.7,58.5,61,29.96,10.0,NW,5.8,-,N/A,,Clear,320,2013-06-17 14:18:00
9:38 AM,74.8,58.1,56,29.97,10.0,WNW,3.5,-,N/A,,Clear,300,2013-06-17 14:38:00
9:57 AM,75.6,56.3,51,29.97,10.0,NW,4.6,-,N/A,,Clear,310,2013-06-17 14:57:00
10:18 AM,78.1,54.3,44,29.97,10.0,NNW,5.8,-,N/A,,Scattered Clouds,330,2013-06-17 15:18:00
10:38 AM,79.0,53.6,41,29.97,10.0,NNW,8.1,-,N/A,,Scattered Clouds,340,2013-06-17 15:38:00
10:58 AM,79.7,53.2,40,29.96,10.0,NNW,9.2,-,N/A,,Clear,330,2013-06-17 15:58:00
11:18 AM,78.8,52.7,40,29.97,10.0,WNW,8.1,-,N/A,,Scattered Clouds,300,2013-06-17 16:18:00
11:38 AM,80.2,51.6,37,29.97,10.0,NNW,9.2,-,N/A,,Scattered Clouds,330,2013-06-17 16:38:00
11:57 AM,80.1,50.9,36,29.97,10.0,NW,11.5,18.4,N/A,,Scattered Clouds,310,2013-06-17 16:57:00
12:18 PM,80.2,51.1,36,29.97,10.0,NNW,12.7,17.3,N/A,,Scattered Clouds,330,2013-06-17 17:18:00
12:37 PM,80.2,50.7,36,29.97,10.0,NW,11.5,21.9,N/A,,Scattered Clouds,320,2013-06-17 17:37:00
12:57 PM,81.3,50.5,34,29.97,10.0,NW,15.0,18.4,N/A,,Scattered Clouds,310,2013-06-17 17:57:00
1:18 PM,80.4,52.2,37,29.97,10.0,WNW,10.4,18.4,N/A,,Mostly Cloudy,290,2013-06-17 18:18:00
1:37 PM,82.2,52.2,35,29.96,10.0,WNW,10.4,-,N/A,,Mostly Cloudy,300,2013-06-17 18:37:00
1:57 PM,80.4,53.2,39,29.96,10.0,WNW,11.5,18.4,N/A,,Mostly Cloudy,300,2013-06-17 18:57:00
2:18 PM,80.2,51.4,37,29.96,10.0,NW,10.4,-,N/A,,Scattered Clouds,310,2013-06-17 19:18:00
2:37 PM,81.7,51.3,35,29.96,10.0,NW,8.1,20.7,N/A,,Scattered Clouds,310,2013-06-17 19:37:00
2:58 PM,80.8,50.9,35,29.95,10.0,NNW,11.5,-,N/A,,Scattered Clouds,330,2013-06-17 19:58:00
3:17 PM,81.1,54.1,39,29.94,10.0,West,11.5,18.4,N/A,,Scattered Clouds,270,2013-06-17 20:17:00
3:38 PM,82.4,51.1,34,29.94,10.0,WNW,16.1,-,N/A,,Scattered Clouds,300,2013-06-17 20:38:00
3:57 PM,82.4,50.7,33,29.94,10.0,West,11.5,-,N/A,,Clear,270,2013-06-17 20:57:00
4:17 PM,82.4,49.8,32,29.94,10.0,WNW,16.1,21.9,N/A,,Scattered Clouds,300,2013-06-17 21:17:00
4:37 PM,81.0,49.5,33,29.93,10.0,WNW,15.0,19.6,N/A,,Scattered Clouds,300,2013-06-17 21:37:00
4:58 PM,82.4,48.2,30,29.93,10.0,NW,8.1,-,N/A,,Clear,320,2013-06-17 21:58:00
5:18 PM,82.2,47.7,30,29.93,10.0,NW,15.0,19.6,N/A,,Clear,320,2013-06-17 22:18:00
5:38 PM,81.9,48.2,31,29.93,10.0,NW,8.1,20.7,N/A,,Clear,320,2013-06-17 22:38:00
5:57 PM,81.9,48.2,31,29.92,10.0,NNW,17.3,20.7,N/A,,Scattered Clouds,330,2013-06-17 22:57:00
6:17 PM,80.4,47.8,32,29.92,10.0,NW,11.5,19.6,N/A,,Clear,320,2013-06-17 23:17:00
6:38 PM,80.2,49.1,34,29.92,10.0,NNW,9.2,-,N/A,,Clear,330,2013-06-17 23:38:00
6:57 PM,80.2,49.8,34,29.92,10.0,NNW,10.4,-,N/A,,Clear,340,2013-06-17 23:57:00
7:18 PM,78.1,49.3,36,29.92,10.0,NNW,8.1,-,N/A,,Clear,340,2013-06-18 00:18:00
7:37 PM,77.0,51.1,40,29.92,10.0,NNW,6.9,-,N/A,,Clear,340,2013-06-18 00:37:00
7:57 PM,75.9,52.0,43,29.92,10.0,North,5.8,-,N/A,,Clear,360,2013-06-18 00:57:00
8:17 PM,74.3,52.7,47,29.92,10.0,North,4.6,-,N/A,,Clear,360,2013-06-18 01:17:00
8:38 PM,73.4,53.1,49,29.93,10.0,NNE,6.9,-,N/A,,Clear,30,2013-06-18 01:38:00
8:57 PM,71.6,55.8,57,29.94,10.0,NE,5.8,-,N/A,,Clear,40,2013-06-18 01:57:00
9:17 PM,70.7,56.5,61,29.95,10.0,NE,6.9,-,N/A,,Clear,40,2013-06-18 02:17:00
9:37 PM,69.6,56.7,63,29.96,10.0,NE,5.8,-,N/A,,Clear,40,2013-06-18 02:37:00
9:57 PM,68.9,56.7,65,29.97,10.0,NE,4.6,-,N/A,,Clear,40,2013-06-18 02:57:00
10:17 PM,68.0,56.7,67,29.98,10.0,NE,3.5,-,N/A,,Clear,40,2013-06-18 03:17:00
10:37 PM,67.5,56.3,67,29.98,10.0,NNE,4.6,-,N/A,,Clear,30,2013-06-18 03:37:00
10:57 PM,66.4,56.5,70,29.98,10.0,NNE,3.5,-,N/A,,Clear,30,2013-06-18 03:57:00
11:17 PM,66.4,56.5,70,29.99,10.0,North,3.5,-,N/A,,Clear,10,2013-06-18 04:17:00
11:38 PM,66.0,56.7,72,29.99,10.0,North,4.6,-,N/A,,Mostly Cloudy,360,2013-06-18 04:38:00
11:57 PM,64.9,56.8,75,29.99,10.0,North,3.5,-,N/A,,Mostly Cloudy,360,2013-06-18 04:57:00